Time;durP1;ratioP1;P1;durP2;ratioP2;P2;SDS_P1;SDS_P2;PMS_P1;PMS_P2;Temp;Humidity;BMP_temperature;BMP_pressure;BME280_temperature;BME280_humidity;BME280_pressure;Samples;Min_cycle;Max_cycle;Signal;HPM_P1;HPM_P2
2022/09/18 00:01:59;;;;;;;;;2.80;2.80;30.30;99.90;;;;;;4940182;28;8858;-71
2022/09/18 00:04:30;;;;;;;;;3.00;3.00;30.20;99.90;;;;;;4935411;28;8884;-72
2022/09/18 00:07:01;;;;;;;;;2.80;2.80;30.20;99.90;;;;;;4937924;28;8841;-72
2022/09/18 00:09:36;;;;;;;;;2.80;1.00;30.20;99.90;;;;;;4935404;28;8861;-72
2022/09/18 00:12:05;;;;;;;;;3.00;3.00;30.10;99.90;;;;;;4938838;28;8845;-73
2022/09/18 00:14:36;;;;;;;;;2.60;2.00;30.10;99.90;;;;;;4942015;28;8877;-73
2022/09/18 00:17:06;;;;;;;;;2.00;2.00;29.90;99.90;;;;;;4937896;28;8938;-72
2022/09/18 00:19:41;;;;;;;;;1.80;1.80;29.80;99.90;;;;;;4936263;28;8869;-73
2022/09/18 00:22:12;;;;;;;;;2.00;2.00;29.80;99.90;;;;;;4937634;28;8877;-71
2022/09/18 00:24:45;;;;;;;;;2.40;2.40;29.80;99.90;;;;;;4936063;28;9424;-71
2022/09/18 00:27:14;;;;;;;;;2.00;2.00;29.70;99.90;;;;;;4948227;28;8933;-73
2022/09/18 00:29:54;;;;;;;;;3.00;3.00;29.70;99.90;;;;;;4951326;28;8964;-73
2022/09/18 00:32:30;;;;;;;;;2.80;2.80;29.60;99.90;;;;;;4937642;28;9545;-75
2022/09/18 00:35:22;;;;;;;;;2.00;2.00;29.60;99.90;;;;;;4939936;28;9647;-73
2022/09/18 00:37:55;;;;;;;;;2.00;2.00;29.50;99.90;;;;;;4966537;28;8853;-72
2022/09/18 00:40:30;;;;;;;;;2.00;2.00;29.50;99.90;;;;;;4945427;28;8891;-73
2022/09/18 00:43:21;;;;;;;;;2.00;2.00;29.50;99.90;;;;;;4969612;28;8876;-71
2022/09/18 00:46:24;;;;;;;;;2.20;2.20;29.50;99.90;;;;;;4938968;28;8853;-72
2022/09/18 00:49:10;;;;;;;;;2.00;2.00;29.50;99.90;;;;;;4945631;28;8844;-71
2022/09/18 00:51:41;;;;;;;;;2.00;2.00;29.50;99.90;;;;;;4950153;28;8861;-73
2022/09/18 00:54:22;;;;;;;;;2.60;2.60;29.40;99.90;;;;;;4952645;28;8920;-72
2022/09/18 00:56:56;;;;;;;;;2.80;2.80;29.40;99.90;;;;;;4959104;28;8872;-73
2022/09/18 00:59:29;;;;;;;;;3.20;2.20;29.40;99.90;;;;;;4937297;28;9700;-72
2022/09/18 01:02:01;;;;;;;;;3.00;3.00;29.40;99.90;;;;;;4941006;28;8883;-73
2022/09/18 01:04:34;;;;;;;;;3.00;3.00;29.30;99.90;;;;;;4936822;28;8883;-72
2022/09/18 01:07:17;;;;;;;;;3.00;3.00;29.20;99.90;;;;;;4938020;28;8872;-73
2022/09/18 01:10:31;;;;;;;;;2.80;2.80;29.20;99.90;;;;;;4960909;28;8842;-74
2022/09/18 01:13:14;;;;;;;;;3.00;2.80;29.20;99.90;;;;;;4962485;28;8931;-71
2022/09/18 01:16:16;;;;;;;;;3.00;3.00;29.10;99.90;;;;;;4966704;28;8881;-72
2022/09/18 01:19:16;;;;;;;;;2.80;2.80;29.10;99.90;;;;;;4940119;28;8857;-70
2022/09/18 01:22:15;;;;;;;;;2.00;2.00;29.10;99.90;;;;;;4942500;28;8872;-73
2022/09/18 01:25:19;;;;;;;;;3.00;3.00;29.00;99.90;;;;;;4973845;28;8867;-74
2022/09/18 01:28:13;;;;;;;;;3.60;3.60;29.00;99.90;;;;;;4952976;28;8845;-73
2022/09/18 01:30:47;;;;;;;;;2.40;2.40;29.00;99.90;;;;;;4962505;28;8849;-74
2022/09/18 01:33:32;;;;;;;;;3.00;3.00;29.00;99.90;;;;;;4946950;28;9003;-73
2022/09/18 01:36:08;;;;;;;;;3.00;3.00;28.90;99.90;;;;;;4969730;28;8898;-73
2022/09/18 01:39:10;;;;;;;;;1.80;1.80;28.90;99.90;;;;;;4974527;28;8923;-71
2022/09/18 01:41:49;;;;;;;;;1.80;1.40;28.90;99.90;;;;;;4935009;28;8837;-72
2022/09/18 01:44:28;;;;;;;;;3.40;3.00;28.90;99.90;;;;;;4932918;28;8884;-71
2022/09/18 01:47:07;;;;;;;;;3.20;3.20;28.80;99.90;;;;;;4980858;28;8977;-71
2022/09/18 01:49:49;;;;;;;;;2.20;2.20;28.70;99.90;;;;;;4977646;28;8854;-73
2022/09/18 01:52:27;;;;;;;;;4.00;4.00;28.70;99.90;;;;;;4977524;28;9657;-72
2022/09/18 01:55:10;;;;;;;;;4.00;4.00;28.70;99.90;;;;;;4939522;28;8874;-72
2022/09/18 01:57:55;;;;;;;;;2.80;2.80;28.70;99.90;;;;;;4942240;28;9008;-73
2022/09/18 02:00:25;;;;;;;;;3.20;3.20;28.60;99.90;;;;;;4955343;28;8881;-73
2022/09/18 02:03:02;;;;;;;;;5.00;3.00;28.70;99.90;;;;;;4967494;28;8861;-73
2022/09/18 02:05:40;;;;;;;;;2.00;2.00;28.60;99.90;;;;;;4940690;28;8856;-74
2022/09/18 02:08:38;;;;;;;;;3.80;3.80;28.60;99.90;;;;;;4956689;28;8857;-72
2022/09/18 02:11:14;;;;;;;;;4.20;4.20;28.50;99.90;;;;;;4943006;28;8916;-71
2022/09/18 02:14:16;;;;;;;;;3.20;3.20;28.50;99.90;;;;;;4972633;28;8846;-72
2022/09/18 02:17:17;;;;;;;;;2.20;2.20;28.50;99.90;;;;;;4942071;28;9635;-73
2022/09/18 02:20:12;;;;;;;;;4.00;4.00;28.40;99.90;;;;;;4969048;28;8859;-72
2022/09/18 02:22:45;;;;;;;;;2.40;2.40;28.40;99.90;;;;;;4962113;28;8849;-72
2022/09/18 02:25:22;;;;;;;;;3.00;3.00;28.40;99.90;;;;;;4945583;28;8915;-73
2022/09/18 02:27:57;;;;;;;;;3.80;3.80;28.40;99.90;;;;;;4960990;28;8850;-71
2022/09/18 02:30:30;;;;;;;;;3.80;3.60;28.40;99.90;;;;;;4963016;28;8857;-71
2022/09/18 02:32:59;;;;;;;;;2.80;2.80;28.30;99.90;;;;;;4945127;28;9559;-71
2022/09/18 02:35:41;;;;;;;;;5.60;4.00;28.30;99.90;;;;;;4957942;28;8846;-72
2022/09/18 02:38:29;;;;;;;;;3.20;3.20;28.30;99.90;;;;;;4956807;28;8849;-73
2022/09/18 02:41:15;;;;;;;;;3.00;3.00;28.20;99.90;;;;;;4964397;28;8888;-73
2022/09/18 02:44:40;;;;;;;;;3.00;3.00;28.10;99.90;;;;;;4965246;28;8865;-73
2022/09/18 02:47:28;;;;;;;;;4.40;3.00;28.10;99.90;;;;;;4913162;28;8855;-72
2022/09/18 02:50:20;;;;;;;;;3.60;3.60;28.20;99.90;;;;;;4970944;28;8857;-72
2022/09/18 02:53:36;;;;;;;;;3.20;3.20;28.10;99.90;;;;;;4956174;28;8877;-73
2022/09/18 02:56:21;;;;;;;;;2.60;2.60;28.10;99.90;;;;;;4942634;28;8854;-72
2022/09/18 02:58:55;;;;;;;;;2.20;2.20;28.10;99.90;;;;;;4952106;28;8943;-71
2022/09/18 03:01:28;;;;;;;;;3.40;3.40;28.00;99.90;;;;;;4944841;28;8854;-70
2022/09/18 03:04:04;;;;;;;;;3.80;3.80;28.00;99.90;;;;;;4949664;28;8875;-72
2022/09/18 03:06:46;;;;;;;;;3.40;3.40;28.00;99.90;;;;;;4953282;28;8992;-71
2022/09/18 03:09:18;;;;;;;;;2.00;2.00;27.90;99.90;;;;;;4959541;28;8900;-73
2022/09/18 03:11:49;;;;;;;;;3.40;3.40;27.90;99.90;;;;;;4961321;28;8861;-73
2022/09/18 03:14:20;;;;;;;;;4.00;4.00;27.90;99.90;;;;;;4949615;28;8834;-72
2022/09/18 03:16:51;;;;;;;;;3.00;3.00;27.90;99.90;;;;;;4962612;28;8902;-73
2022/09/18 03:19:24;;;;;;;;;4.80;3.20;27.90;99.90;;;;;;4966812;28;8865;-72
2022/09/18 03:21:58;;;;;;;;;3.00;3.00;27.80;99.90;;;;;;4945604;28;8848;-72
2022/09/18 03:24:31;;;;;;;;;3.00;3.00;27.80;99.90;;;;;;4968492;28;8861;-72
2022/09/18 03:27:05;;;;;;;;;4.00;4.00;27.80;99.90;;;;;;4968914;28;8861;-74
2022/09/18 03:29:37;;;;;;;;;3.20;3.20;27.70;99.90;;;;;;4978912;28;8920;-72
2022/09/18 03:32:06;;;;;;;;;2.20;2.20;27.70;99.90;;;;;;4945872;28;8930;-72
2022/09/18 03:34:47;;;;;;;;;3.00;3.00;27.70;99.90;;;;;;4944371;28;8955;-72
2022/09/18 03:37:25;;;;;;;;;2.00;2.00;27.80;99.90;;;;;;4958006;28;8870;-71
2022/09/18 03:40:02;;;;;;;;;2.00;2.00;27.80;99.90;;;;;;4943811;28;8873;-73
2022/09/18 03:42:32;;;;;;;;;2.00;2.00;27.70;99.90;;;;;;4929189;28;9629;-72
2022/09/18 03:45:04;;;;;;;;;3.20;3.20;27.70;99.90;;;;;;4974106;28;8869;-72
2022/09/18 03:47:35;;;;;;;;;2.20;2.20;27.70;99.90;;;;;;4952318;28;8865;-73
2022/09/18 03:50:07;;;;;;;;;5.00;3.00;27.70;99.90;;;;;;4975512;28;8872;-73
2022/09/18 03:52:39;;;;;;;;;5.00;4.00;27.60;99.90;;;;;;4964969;28;8865;-72
2022/09/18 03:55:32;;;;;;;;;4.00;4.00;27.60;99.90;;;;;;4941019;28;8877;-72
2022/09/18 03:58:22;;;;;;;;;4.20;4.20;27.60;99.90;;;;;;4963191;28;8857;-73
2022/09/18 04:01:14;;;;;;;;;3.20;3.20;27.60;99.90;;;;;;4941587;28;8822;-73
2022/09/18 04:04:04;;;;;;;;;4.00;4.00;27.60;99.90;;;;;;4967734;28;8904;-72
2022/09/18 04:06:54;;;;;;;;;5.40;4.00;27.60;99.90;;;;;;4943620;28;8837;-73
2022/09/18 04:09:43;;;;;;;;;4.00;4.00;27.60;99.90;;;;;;4934134;28;8857;-73
2022/09/18 04:12:14;;;;;;;;;4.20;4.20;27.60;99.90;;;;;;4942848;28;8853;-73
2022/09/18 04:14:46;;;;;;;;;3.00;3.00;27.60;99.90;;;;;;4969069;28;9637;-72
2022/09/18 04:17:21;;;;;;;;;3.80;3.80;27.50;99.90;;;;;;4939912;28;9223;-71
2022/09/18 04:19:53;;;;;;;;;5.80;4.00;27.50;99.90;;;;;;4939535;28;8845;-72
2022/09/18 04:22:23;;;;;;;;;3.00;3.00;27.50;99.90;;;;;;4940710;28;8883;-73
2022/09/18 04:24:57;;;;;;;;;3.00;3.00;27.40;99.90;;;;;;4953543;28;8877;-73
2022/09/18 04:27:27;;;;;;;;;3.40;3.40;27.40;99.90;;;;;;4934769;28;8867;-75
2022/09/18 04:29:56;;;;;;;;;3.40;3.40;27.40;99.90;;;;;;4954708;28;8865;-73
2022/09/18 04:32:27;;;;;;;;;2.00;2.00;27.30;99.90;;;;;;4949907;28;8865;-71
2022/09/18 04:34:58;;;;;;;;;4.00;4.00;27.30;99.90;;;;;;4953247;28;8892;-72
2022/09/18 04:37:30;;;;;;;;;3.20;3.20;27.20;99.90;;;;;;4963535;28;8861;-72
2022/09/18 04:40:06;;;;;;;;;3.00;3.00;27.30;99.90;;;;;;4948981;28;8868;-72
2022/09/18 04:42:37;;;;;;;;;4.00;4.00;27.20;99.90;;;;;;4934784;28;8829;-72
2022/09/18 04:45:09;;;;;;;;;3.80;3.80;27.20;99.90;;;;;;4921815;28;8849;-72
2022/09/18 04:47:40;;;;;;;;;1.60;1.60;27.20;99.90;;;;;;4937724;28;8853;-71
2022/09/18 04:50:10;;;;;;;;;2.80;2.80;27.10;99.90;;;;;;4963630;28;8857;-72
2022/09/18 04:52:59;;;;;;;;;4.00;4.00;27.10;99.90;;;;;;4937584;28;8853;-73
2022/09/18 04:55:32;;;;;;;;;3.00;3.00;27.10;99.90;;;;;;4952637;28;8898;-73
2022/09/18 04:58:05;;;;;;;;;3.00;3.00;27.00;99.90;;;;;;4961568;28;8907;-72
2022/09/18 05:00:37;;;;;;;;;3.00;3.00;27.00;99.90;;;;;;4953307;28;8906;-72
2022/09/18 05:03:10;;;;;;;;;2.60;2.60;27.00;99.90;;;;;;4918169;28;8880;-72
2022/09/18 05:05:43;;;;;;;;;3.00;3.00;26.90;99.90;;;;;;4949548;28;8891;-73
2022/09/18 05:08:14;;;;;;;;;3.00;3.00;27.00;99.90;;;;;;4931414;28;8885;-73
2022/09/18 05:10:46;;;;;;;;;5.20;4.40;26.90;99.90;;;;;;4935922;28;8916;-73
2022/09/18 05:13:17;;;;;;;;;2.60;2.60;26.90;99.90;;;;;;4949703;28;8861;-71
2022/09/18 05:16:15;;;;;;;;;3.20;3.20;26.90;99.90;;;;;;4937558;28;8865;-72
2022/09/18 05:18:58;;;;;;;;;3.00;3.00;26.90;99.90;;;;;;4934168;28;8880;-72
2022/09/18 05:21:28;;;;;;;;;4.00;2.60;26.90;99.90;;;;;;4934263;28;8861;-72
2022/09/18 05:23:58;;;;;;;;;3.00;3.00;26.80;99.90;;;;;;4948503;28;8868;-73
2022/09/18 05:26:34;;;;;;;;;2.20;2.20;26.70;99.90;;;;;;4934527;28;8834;-72
2022/09/18 05:29:04;;;;;;;;;3.00;3.00;26.80;99.90;;;;;;4949397;28;8931;-71
2022/09/18 05:31:33;;;;;;;;;2.80;2.80;26.70;99.90;;;;;;4964869;28;8853;-71
2022/09/18 05:34:06;;;;;;;;;3.00;3.00;26.70;99.90;;;;;;4932765;28;8869;-71
2022/09/18 05:36:36;;;;;;;;;2.60;2.60;26.70;99.90;;;;;;4951862;28;8846;-71
2022/09/18 05:39:06;;;;;;;;;3.20;2.40;26.60;99.90;;;;;;4932626;28;11127;-73
2022/09/18 05:41:38;;;;;;;;;4.00;2.60;26.50;99.90;;;;;;4951261;28;8873;-72
2022/09/18 05:44:08;;;;;;;;;2.00;2.00;26.50;99.90;;;;;;4948933;28;8831;-73
2022/09/18 05:46:41;;;;;;;;;2.00;2.00;26.50;99.90;;;;;;4948699;28;8865;-73
2022/09/18 05:49:12;;;;;;;;;2.00;2.00;26.50;99.90;;;;;;4935305;28;8878;-73
2022/09/18 05:51:44;;;;;;;;;2.40;2.40;26.50;99.90;;;;;;4962438;28;8856;-73
2022/09/18 05:54:20;;;;;;;;;3.00;3.00;26.40;99.90;;;;;;4935292;28;8897;-72
2022/09/18 05:56:54;;;;;;;;;1.60;1.60;26.50;99.90;;;;;;4955252;28;8849;-70
2022/09/18 05:59:27;;;;;;;;;1.60;1.60;26.40;99.90;;;;;;4966604;28;8852;-72
2022/09/18 06:02:00;;;;;;;;;3.60;3.60;26.40;99.90;;;;;;4951823;28;8869;-72
2022/09/18 06:04:57;;;;;;;;;2.20;2.20;26.30;99.90;;;;;;4939653;28;8880;-72
2022/09/18 06:07:26;;;;;;;;;2.20;2.20;26.30;99.90;;;;;;4956915;28;8888;-73
2022/09/18 06:09:58;;;;;;;;;4.00;4.00;26.20;99.90;;;;;;4936951;28;8848;-71
2022/09/18 06:12:28;;;;;;;;;2.80;2.80;26.20;99.90;;;;;;4935212;28;8877;-72
2022/09/18 06:14:59;;;;;;;;;3.80;3.80;26.30;99.90;;;;;;4945362;28;8855;-74
2022/09/18 06:17:30;;;;;;;;;2.00;2.00;26.20;99.90;;;;;;4940362;28;8992;-71
2022/09/18 06:20:12;;;;;;;;;2.00;2.00;26.10;99.90;;;;;;4964034;28;8853;-72
2022/09/18 06:22:42;;;;;;;;;3.00;3.00;26.00;99.90;;;;;;4948753;28;8849;-72
2022/09/18 06:25:17;;;;;;;;;3.80;3.80;26.10;99.90;;;;;;4936879;28;8857;-71
2022/09/18 06:27:57;;;;;;;;;4.60;4.60;26.00;99.90;;;;;;4955924;28;8887;-71
2022/09/18 06:30:29;;;;;;;;;3.00;3.00;26.00;99.90;;;;;;4937239;28;10274;-71
2022/09/18 06:33:05;;;;;;;;;8.00;6.40;26.00;99.90;;;;;;4955680;28;9665;-72
2022/09/18 06:35:47;;;;;;;;;4.00;4.00;26.00;99.90;;;;;;4938533;28;8861;-71
2022/09/18 06:38:25;;;;;;;;;5.40;4.00;26.00;99.90;;;;;;4937318;28;8880;-72
2022/09/18 06:41:04;;;;;;;;;3.20;3.00;25.90;99.90;;;;;;4951557;28;9611;-72
2022/09/18 06:43:49;;;;;;;;;2.80;2.80;25.90;99.90;;;;;;4958069;28;8848;-72
2022/09/18 06:46:48;;;;;;;;;3.00;3.00;25.90;99.90;;;;;;4949642;28;8873;-72
2022/09/18 06:49:34;;;;;;;;;2.20;2.20;25.80;99.90;;;;;;4937736;28;8865;-71
2022/09/18 06:52:06;;;;;;;;;3.00;3.00;25.80;99.90;;;;;;4970665;28;8877;-73
2022/09/18 06:54:39;;;;;;;;;5.00;5.00;25.80;99.90;;;;;;4937278;28;8861;-72
2022/09/18 06:57:14;;;;;;;;;3.40;3.40;25.70;99.90;;;;;;4936376;28;8842;-72
2022/09/18 06:59:46;;;;;;;;;3.40;3.40;25.70;99.90;;;;;;4949712;28;8891;-72
2022/09/18 07:02:19;;;;;;;;;4.20;3.20;25.70;99.90;;;;;;4951455;28;9357;-73
2022/09/18 07:04:55;;;;;;;;;3.00;3.00;25.70;99.90;;;;;;4931398;28;8854;-71
2022/09/18 07:07:28;;;;;;;;;3.20;3.20;25.70;99.90;;;;;;4932068;28;9972;-73
2022/09/18 07:09:58;;;;;;;;;4.00;4.00;25.70;99.90;;;;;;4944937;28;9011;-73
2022/09/18 07:12:36;;;;;;;;;4.40;4.40;25.70;99.90;;;;;;4930305;28;8927;-72
2022/09/18 07:15:07;;;;;;;;;4.80;4.80;25.70;99.90;;;;;;4957995;28;9776;-72
2022/09/18 07:17:38;;;;;;;;;4.20;4.20;25.70;99.90;;;;;;4934767;28;8881;-73
2022/09/18 07:20:10;;;;;;;;;3.20;3.20;25.60;99.90;;;;;;4938914;28;8856;-73
2022/09/18 07:22:43;;;;;;;;;3.80;3.80;25.60;99.90;;;;;;4937776;28;8894;-72
2022/09/18 07:25:16;;;;;;;;;3.60;3.60;25.50;99.90;;;;;;4936338;28;8842;-71
2022/09/18 07:27:49;;;;;;;;;2.60;2.60;25.50;99.90;;;;;;4950738;28;9630;-71
2022/09/18 07:30:21;;;;;;;;;3.00;3.00;25.40;99.90;;;;;;4955094;28;9585;-71
2022/09/18 07:32:53;;;;;;;;;3.40;3.40;25.50;99.90;;;;;;4966683;28;8865;-73
2022/09/18 07:35:28;;;;;;;;;3.00;3.00;25.50;99.90;;;;;;4952918;28;8880;-71
2022/09/18 07:38:04;;;;;;;;;2.00;2.00;25.50;99.90;;;;;;4949988;28;8861;-72
2022/09/18 07:40:49;;;;;;;;;2.40;2.40;25.60;99.90;;;;;;4948995;28;8870;-72
2022/09/18 07:43:33;;;;;;;;;3.00;3.00;25.60;99.90;;;;;;4935577;28;8860;-73
2022/09/18 07:46:03;;;;;;;;;4.60;4.60;25.60;99.90;;;;;;4933501;28;8849;-73
2022/09/18 07:48:36;;;;;;;;;2.60;2.60;25.60;99.90;;;;;;4939227;28;8868;-73
2022/09/18 07:51:14;;;;;;;;;4.60;3.00;25.50;99.90;;;;;;4955734;28;9590;-73
2022/09/18 07:53:48;;;;;;;;;3.40;3.40;25.60;99.90;;;;;;4923848;28;8854;-72
2022/09/18 07:56:27;;;;;;;;;3.60;3.60;25.60;99.90;;;;;;4951186;28;8890;-73
2022/09/18 07:58:57;;;;;;;;;4.00;4.00;25.50;99.90;;;;;;4937570;28;10118;-73
2022/09/18 08:01:32;;;;;;;;;3.80;3.80;25.40;99.90;;;;;;4966730;28;8877;-72
2022/09/18 08:04:08;;;;;;;;;3.00;3.00;25.40;99.90;;;;;;4952775;28;8849;-72
2022/09/18 08:07:02;;;;;;;;;3.00;3.00;25.40;99.90;;;;;;4937913;28;8845;-72
2022/09/18 08:09:52;;;;;;;;;3.80;3.80;25.40;99.90;;;;;;4947575;28;8876;-72
2022/09/18 08:12:35;;;;;;;;;3.40;3.40;25.40;99.90;;;;;;4932674;28;8858;-72
2022/09/18 08:15:26;;;;;;;;;3.80;3.80;25.40;99.90;;;;;;4950166;28;8878;-72
2022/09/18 08:18:16;;;;;;;;;3.20;3.20;25.40;99.90;;;;;;4938636;28;9592;-71
2022/09/18 08:21:09;;;;;;;;;2.00;2.00;25.40;99.90;;;;;;4937113;28;8848;-72
2022/09/18 08:23:51;;;;;;;;;3.60;3.60;25.40;99.90;;;;;;4935662;28;8881;-72
2022/09/18 08:26:21;;;;;;;;;3.00;3.00;25.40;99.90;;;;;;4936887;28;8855;-71
2022/09/18 08:28:54;;;;;;;;;4.00;4.00;25.40;99.90;;;;;;4964902;28;8902;-72
2022/09/18 08:31:23;;;;;;;;;3.60;2.80;25.40;99.90;;;;;;4940402;28;8869;-71
2022/09/18 08:33:57;;;;;;;;;3.80;3.80;25.40;99.90;;;;;;4938031;28;8968;-71
2022/09/18 08:36:27;;;;;;;;;3.20;3.20;25.40;99.90;;;;;;4939719;28;9028;-71
2022/09/18 08:39:17;;;;;;;;;4.00;4.00;25.40;99.90;;;;;;4937074;28;8862;-72
2022/09/18 08:42:23;;;;;;;;;1.00;1.00;25.40;99.90;;;;;;4932485;28;8920;-73
2022/09/18 08:45:02;;;;;;;;;3.00;3.00;25.30;99.90;;;;;;4956540;28;8860;-73
2022/09/18 08:47:43;;;;;;;;;3.60;3.60;25.30;99.90;;;;;;4961081;28;9018;-73
2022/09/18 08:50:32;;;;;;;;;3.20;3.20;25.20;99.90;;;;;;4954100;28;9327;-72
2022/09/18 08:53:25;;;;;;;;;1.40;1.40;25.20;99.90;;;;;;4950897;28;8853;-73
2022/09/18 08:56:23;;;;;;;;;3.80;3.00;25.20;99.90;;;;;;4935087;28;8849;-73
2022/09/18 08:59:44;;;;;;;;;3.80;2.00;25.20;99.90;;;;;;4937540;28;8938;-73
2022/09/18 09:02:37;;;;;;;;;3.80;3.80;25.20;99.90;;;;;;4936722;28;8885;-72
2022/09/18 09:05:19;;;;;;;;;3.00;3.00;25.20;99.90;;;;;;4951246;28;8853;-73
2022/09/18 09:08:01;;;;;;;;;3.40;3.40;25.20;99.90;;;;;;4941250;28;8883;-72
2022/09/18 09:10:42;;;;;;;;;6.00;6.00;25.20;99.90;;;;;;4959767;28;8852;-72
2022/09/18 09:14:01;;;;;;;;;4.50;4.50;25.10;99.90;;;;;;4936303;28;8879;-72
2022/09/18 09:16:37;;;;;;;;;3.25;3.25;25.10;99.90;;;;;;4963924;28;8885;-72
2022/09/18 09:19:34;;;;;;;;;5.00;5.00;25.20;99.90;;;;;;4953983;28;8878;-72
2022/09/18 09:22:20;;;;;;;;;5.00;5.00;25.20;99.90;;;;;;4913608;28;8879;-72
2022/09/18 09:25:24;;;;;;;;;4.60;4.60;25.10;99.90;;;;;;4952581;28;8858;-72
2022/09/18 09:28:23;;;;;;;;;4.00;4.00;25.20;99.90;;;;;;4935189;28;8892;-73
2022/09/18 09:31:23;;;;;;;;;3.50;3.50;25.10;99.90;;;;;;4936063;28;8861;-73
2022/09/18 09:34:28;;;;;;;;;4.25;4.25;25.10;99.90;;;;;;4935986;28;8916;-72
2022/09/18 09:37:16;;;;;;;;;5.25;5.25;25.10;99.90;;;;;;4947814;28;8869;-72
2022/09/18 09:40:05;;;;;;;;;7.00;6.00;25.00;99.90;;;;;;4921495;28;8887;-72
2022/09/18 09:42:59;;;;;;;;;5.75;5.00;25.10;99.90;;;;;;4946039;28;9576;-72
2022/09/18 09:45:47;;;;;;;;;4.50;3.25;25.10;99.90;;;;;;4937466;28;8857;-72
2022/09/18 09:48:26;;;;;;;;;7.50;6.75;25.10;99.90;;;;;;4935728;28;9021;-72
2022/09/18 09:51:09;;;;;;;;;5.25;5.25;25.10;99.90;;;;;;4945412;28;8863;-73
2022/09/18 09:53:42;;;;;;;;;4.25;4.25;25.10;99.90;;;;;;4933800;28;8857;-73
2022/09/18 09:56:21;;;;;;;;;6.50;5.25;25.10;99.90;;;;;;4948761;28;8886;-72
2022/09/18 09:58:56;;;;;;;;;5.50;5.50;25.10;99.90;;;;;;4951682;28;9027;-73
2022/09/18 10:01:32;;;;;;;;;5.00;5.00;25.00;99.90;;;;;;4935414;28;9011;-73
2022/09/18 10:04:27;;;;;;;;;5.25;5.25;25.00;99.90;;;;;;4965350;28;8885;-72
2022/09/18 10:07:10;;;;;;;;;4.40;4.40;25.00;99.90;;;;;;4935627;28;8874;-72
2022/09/18 10:09:54;;;;;;;;;4.00;4.00;25.10;99.90;;;;;;4961237;28;8885;-71
2022/09/18 10:12:42;;;;;;;;;5.40;5.40;25.00;99.90;;;;;;4927658;28;8859;-72
2022/09/18 10:15:30;;;;;;;;;7.00;7.00;25.00;99.90;;;;;;4944584;28;9780;-73
2022/09/18 10:18:06;;;;;;;;;4.00;4.00;25.10;99.90;;;;;;4949737;28;8865;-71
2022/09/18 10:20:44;;;;;;;;;4.75;4.75;25.10;99.90;;;;;;4932747;28;8994;-70
2022/09/18 10:23:40;;;;;;;;;5.00;5.00;25.00;99.90;;;;;;4952757;28;8881;-72
2022/09/18 10:26:30;;;;;;;;;4.00;4.00;25.00;99.90;;;;;;4935338;28;8857;-73
2022/09/18 10:29:01;;;;;;;;;5.00;5.00;25.00;99.90;;;;;;4961145;28;8923;-72
2022/09/18 10:31:55;;;;;;;;;4.80;4.80;24.90;99.90;;;;;;4949299;28;8886;-72
2022/09/18 10:34:43;;;;;;;;;3.25;3.25;24.80;99.90;;;;;;4928873;28;8869;-71
2022/09/18 10:37:28;;;;;;;;;5.00;5.00;24.80;99.90;;;;;;4949538;28;8877;-72
2022/09/18 10:40:07;;;;;;;;;7.60;7.60;24.90;99.90;;;;;;4962765;28;9600;-73
2022/09/18 10:42:38;;;;;;;;;5.25;5.25;25.00;99.90;;;;;;4959854;28;8877;-72
2022/09/18 10:45:31;;;;;;;;;8.25;8.25;24.90;99.90;;;;;;4956615;28;8879;-73
2022/09/18 10:48:24;;;;;;;;;8.00;8.00;24.90;99.90;;;;;;4939501;28;8852;-71
2022/09/18 10:51:01;;;;;;;;;6.75;6.75;25.00;99.90;;;;;;4949390;28;8889;-71
2022/09/18 10:53:41;;;;;;;;;7.25;7.25;24.90;99.90;;;;;;4948366;28;8853;-72
2022/09/18 10:56:34;;;;;;;;;8.75;8.75;24.90;99.90;;;;;;4941531;28;8877;-73
2022/09/18 10:59:34;;;;;;;;;9.50;8.25;24.80;99.90;;;;;;4963523;28;8910;-71
2022/09/18 11:02:13;;;;;;;;;7.50;7.50;24.80;99.90;;;;;;4935458;28;8949;-72
2022/09/18 11:04:47;;;;;;;;;8.25;8.25;24.90;99.90;;;;;;4929944;28;8877;-73
2022/09/18 11:07:25;;;;;;;;;8.25;8.25;24.80;99.90;;;;;;4953671;28;8869;-71
2022/09/18 11:09:56;;;;;;;;;10.00;10.00;24.80;99.90;;;;;;4962807;28;8850;-71
2022/09/18 11:12:27;;;;;;;;;7.25;7.25;24.80;99.90;;;;;;4967060;28;8865;-73
2022/09/18 11:15:06;;;;;;;;;9.25;9.25;24.80;99.90;;;;;;4957143;28;8845;-73
2022/09/18 11:17:47;;;;;;;;;8.25;8.25;24.80;99.90;;;;;;4937146;28;8880;-72
2022/09/18 11:20:29;;;;;;;;;6.00;5.50;24.80;99.90;;;;;;4934373;28;8872;-71
2022/09/18 11:23:29;;;;;;;;;6.50;6.50;24.70;99.90;;;;;;4965948;28;8861;-72
2022/09/18 11:26:28;;;;;;;;;4.00;4.00;24.80;99.90;;;;;;4955960;28;8849;-72
2022/09/18 11:29:41;;;;;;;;;6.00;6.00;24.80;99.90;;;;;;4950322;28;9450;-72
2022/09/18 11:32:26;;;;;;;;;6.00;6.00;24.70;99.90;;;;;;4934393;28;9309;-71
2022/09/18 11:35:12;;;;;;;;;5.20;5.20;24.70;99.90;;;;;;4954769;28;8884;-71
2022/09/18 11:37:54;;;;;;;;;7.75;6.25;24.70;99.90;;;;;;4940768;28;8881;-72
2022/09/18 11:40:29;;;;;;;;;5.00;5.00;24.70;99.90;;;;;;4952926;28;8984;-72
2022/09/18 11:43:04;;;;;;;;;6.75;6.25;24.70;99.90;;;;;;4939282;28;8881;-71
2022/09/18 11:45:58;;;;;;;;;5.00;5.00;24.80;99.90;;;;;;4951735;28;8877;-72
2022/09/18 11:48:48;;;;;;;;;6.00;6.00;24.80;99.90;;;;;;4969362;28;8865;-70
2022/09/18 11:51:27;;;;;;;;;5.50;5.50;24.70;99.90;;;;;;4965421;28;8873;-72
2022/09/18 11:54:08;;;;;;;;;6.75;6.75;24.70;99.90;;;;;;4953813;28;8840;-72
2022/09/18 11:56:50;;;;;;;;;4.25;3.75;24.80;99.90;;;;;;4951144;28;8837;-72
2022/09/18 11:59:55;;;;;;;;;5.25;5.25;24.70;99.90;;;;;;4936342;28;8858;-71
2022/09/18 12:02:32;;;;;;;;;4.00;4.00;24.60;99.90;;;;;;4919432;28;8860;-73
2022/09/18 12:05:21;;;;;;;;;4.50;3.50;24.60;99.90;;;;;;4952574;28;8891;-73
2022/09/18 12:07:52;;;;;;;;;5.00;5.00;24.50;99.90;;;;;;4951157;28;8907;-72
2022/09/18 12:10:49;;;;;;;;;4.00;4.00;24.60;99.90;;;;;;4934977;28;8861;-72
2022/09/18 12:13:34;;;;;;;;;5.00;5.00;24.60;99.90;;;;;;4966545;28;8889;-73
2022/09/18 12:16:21;;;;;;;;;5.50;5.50;24.60;99.90;;;;;;4938529;28;8872;-72
2022/09/18 12:19:15;;;;;;;;;5.00;5.00;24.60;99.90;;;;;;4935812;28;8868;-73
2022/09/18 12:21:50;;;;;;;;;8.00;7.25;24.60;99.90;;;;;;4966053;28;8857;-72
2022/09/18 12:24:20;;;;;;;;;7.00;7.00;24.50;99.90;;;;;;4942149;28;8885;-72
2022/09/18 12:27:17;;;;;;;;;7.50;7.50;24.40;99.90;;;;;;4964264;28;8892;-72
2022/09/18 12:30:00;;;;;;;;;6.25;6.25;24.40;99.90;;;;;;4963987;28;8845;-73
2022/09/18 12:32:36;;;;;;;;;10.75;10.75;24.50;99.90;;;;;;4936164;28;8849;-73
2022/09/18 12:35:32;;;;;;;;;8.50;8.50;24.50;99.90;;;;;;4955195;28;8873;-72
2022/09/18 12:38:29;;;;;;;;;9.25;9.25;24.50;99.90;;;;;;4940279;28;8868;-72
2022/09/18 12:41:17;;;;;;;;;5.50;5.50;24.50;99.90;;;;;;4935520;28;8837;-72
2022/09/18 12:44:18;;;;;;;;;8.25;8.25;24.60;99.90;;;;;;4940019;28;9482;-73
2022/09/18 12:47:08;;;;;;;;;9.50;9.50;24.50;99.90;;;;;;4938844;28;8841;-72
2022/09/18 12:49:47;;;;;;;;;9.50;9.50;24.50;99.90;;;;;;4937038;28;8876;-72
2022/09/18 12:52:52;;;;;;;;;10.75;9.00;24.50;99.90;;;;;;4935517;28;8881;-72
2022/09/18 12:56:02;;;;;;;;;9.75;9.75;24.50;99.90;;;;;;4933144;28;8869;-72
2022/09/18 12:58:44;;;;;;;;;11.00;11.00;24.50;99.90;;;;;;4953606;28;8825;-72
2022/09/18 13:01:44;;;;;;;;;12.00;12.00;24.50;99.90;;;;;;4963205;28;8838;-73
2022/09/18 13:04:17;;;;;;;;;5.25;5.25;24.60;99.90;;;;;;4935838;28;8853;-71
2022/09/18 13:07:04;;;;;;;;;8.00;8.00;24.60;99.90;;;;;;4934761;28;8872;-72
2022/09/18 13:09:54;;;;;;;;;9.00;9.00;24.60;99.90;;;;;;4962541;28;8899;-72
2022/09/18 13:12:45;;;;;;;;;8.50;8.50;24.60;99.90;;;;;;4934904;28;8833;-72
2022/09/18 13:15:43;;;;;;;;;7.25;7.25;24.70;99.90;;;;;;4950298;28;9946;-72
2022/09/18 13:18:37;;;;;;;;;6.25;6.25;24.80;99.90;;;;;;4935920;28;8861;-72
2022/09/18 13:21:19;;;;;;;;;7.00;7.00;24.80;99.90;;;;;;4934234;28;8837;-72
2022/09/18 13:23:52;;;;;;;;;8.50;8.50;24.90;99.90;;;;;;4963530;28;8858;-73
2022/09/18 13:26:29;;;;;;;;;7.50;7.00;24.80;99.90;;;;;;4930915;28;9369;-72
2022/09/18 13:29:00;;;;;;;;;7.25;6.00;24.90;99.90;;;;;;4930470;28;8888;-72
2022/09/18 13:31:36;;;;;;;;;5.50;5.50;25.00;99.90;;;;;;4949651;28;8969;-72
2022/09/18 13:34:17;;;;;;;;;5.75;5.75;25.00;99.90;;;;;;4930117;28;8887;-72
2022/09/18 13:36:48;;;;;;;;;6.75;6.75;25.10;99.90;;;;;;4935289;28;8849;-72
2022/09/18 13:39:28;;;;;;;;;6.75;6.75;25.10;99.90;;;;;;4930093;28;8907;-73
2022/09/18 13:42:40;;;;;;;;;6.75;6.75;25.20;99.90;;;;;;4932077;28;8878;-71
2022/09/18 13:45:26;;;;;;;;;7.25;7.00;25.30;99.90;;;;;;4933292;28;8865;-71
2022/09/18 13:48:03;;;;;;;;;6.25;6.25;25.30;99.90;;;;;;4951688;28;8872;-73
2022/09/18 13:50:38;;;;;;;;;4.00;4.00;25.40;99.90;;;;;;4950152;28;8842;-72
2022/09/18 13:53:38;;;;;;;;;6.50;6.50;25.50;99.90;;;;;;4937660;28;8853;-72
2022/09/18 13:56:19;;;;;;;;;4.20;4.20;25.50;99.90;;;;;;4961911;28;8849;-72
2022/09/18 13:58:54;;;;;;;;;5.20;5.20;25.60;99.90;;;;;;4958897;28;8845;-72
2022/09/18 14:01:41;;;;;;;;;6.00;6.00;25.60;99.90;;;;;;4934611;28;8896;-71
2022/09/18 14:04:58;;;;;;;;;7.00;7.00;25.70;99.90;;;;;;4932978;28;8852;-70
2022/09/18 14:07:32;;;;;;;;;6.75;6.75;25.70;99.90;;;;;;4929687;28;8837;-73
2022/09/18 14:10:07;;;;;;;;;7.00;7.00;25.60;99.90;;;;;;4931922;28;8829;-72
2022/09/18 14:12:37;;;;;;;;;6.00;6.00;25.70;99.90;;;;;;4949686;28;8951;-70